createdAt,value
2022-09-16T00:01:46.866Z,16.30
2022-09-16T00:04:10.380Z,16.30
2022-09-16T00:06:33.929Z,16.30
2022-09-16T00:09:01.005Z,16.10
2022-09-16T00:11:25.261Z,16.10
2022-09-16T00:13:49.383Z,16.10
2022-09-16T00:16:21.147Z,16.10
2022-09-16T00:18:44.788Z,16.10
2022-09-16T00:21:10.891Z,16.10
2022-09-16T00:23:34.701Z,16.00
2022-09-16T00:25:58.163Z,16.00
2022-09-16T00:28:21.782Z,15.80
2022-09-16T00:30:45.248Z,15.80
2022-09-16T00:33:10.334Z,15.70
2022-09-16T00:35:33.794Z,15.80
2022-09-16T00:37:57.211Z,15.40
2022-09-16T00:40:21.092Z,15.30
2022-09-16T00:42:44.842Z,15.50
2022-09-16T00:45:19.156Z,15.50
2022-09-16T00:47:46.580Z,15.70
2022-09-16T00:50:17.187Z,15.50
2022-09-16T00:52:42.631Z,15.50
2022-09-16T00:55:10.558Z,15.40
2022-09-16T00:57:34.357Z,15.60
2022-09-16T00:59:58.735Z,15.70
2022-09-16T01:02:23.838Z,15.50
2022-09-16T01:04:53.000Z,15.50
2022-09-16T01:07:20.039Z,15.60
2022-09-16T01:09:43.678Z,15.70
2022-09-16T01:12:08.063Z,15.60
2022-09-16T01:14:49.358Z,15.60
2022-09-16T01:17:21.287Z,15.50
2022-09-16T01:20:33.989Z,15.60
2022-09-16T01:23:40.878Z,15.70
2022-09-16T01:26:26.293Z,15.60
2022-09-16T01:29:32.604Z,15.80
2022-09-16T01:32:06.173Z,15.70
2022-09-16T01:34:47.107Z,15.70
2022-09-16T01:37:24.895Z,15.70
2022-09-16T01:39:59.369Z,15.70
2022-09-16T01:42:35.092Z,15.70
2022-09-16T01:45:05.617Z,15.60
2022-09-16T01:47:37.836Z,15.80
2022-09-16T01:50:08.975Z,15.80
2022-09-16T01:52:44.548Z,15.60
2022-09-16T01:55:11.640Z,15.60
2022-09-16T01:57:42.297Z,15.50
2022-09-16T02:00:10.764Z,15.70
2022-09-16T02:02:40.132Z,15.70
2022-09-16T02:05:09.781Z,15.70
2022-09-16T02:07:39.901Z,15.50
2022-09-16T02:10:12.113Z,15.60
2022-09-16T02:12:40.709Z,15.60
2022-09-16T02:15:09.265Z,15.60
2022-09-16T02:17:38.679Z,15.50
2022-09-16T02:20:07.891Z,15.50
2022-09-16T02:22:40.907Z,15.60
2022-09-16T02:25:07.666Z,15.70
2022-09-16T02:27:33.686Z,15.70
2022-09-16T02:30:02.373Z,15.80
2022-09-16T02:32:29.088Z,15.70
2022-09-16T02:34:55.253Z,15.50
2022-09-16T02:37:23.597Z,15.60
2022-09-16T02:39:50.855Z,15.70
2022-09-16T02:42:14.558Z,15.40
2022-09-16T02:44:38.426Z,15.40
2022-09-16T02:47:10.633Z,15.50
2022-09-16T02:49:43.098Z,15.50
2022-09-16T02:52:16.131Z,15.70
2022-09-16T02:54:48.112Z,15.60
2022-09-16T02:57:12.228Z,15.70
2022-09-16T02:59:35.745Z,15.70
2022-09-16T03:02:00.970Z,15.60
2022-09-16T03:04:24.749Z,15.50
2022-09-16T03:06:49.186Z,15.40
2022-09-16T03:09:17.083Z,15.40
2022-09-16T03:12:22.590Z,15.50
2022-09-16T03:15:08.042Z,15.50
2022-09-16T03:17:52.126Z,15.50
2022-09-16T03:20:23.224Z,15.40
2022-09-16T03:22:55.671Z,15.50
2022-09-16T03:25:34.429Z,15.40
2022-09-16T03:28:07.365Z,15.50
2022-09-16T03:30:38.573Z,15.40
2022-09-16T03:33:07.937Z,15.60
2022-09-16T03:35:41.752Z,15.30
2022-09-16T03:38:08.264Z,15.40
2022-09-16T03:40:35.436Z,15.60
2022-09-16T03:42:59.729Z,15.30
2022-09-16T03:45:24.698Z,15.40
2022-09-16T03:47:50.879Z,15.40
2022-09-16T03:50:14.860Z,15.20
2022-09-16T03:52:39.405Z,15.30
2022-09-16T03:55:02.985Z,15.30
2022-09-16T03:57:30.333Z,15.20
2022-09-16T03:59:53.834Z,15.30
2022-09-16T04:02:17.271Z,15.20
2022-09-16T04:04:41.069Z,15.20
2022-09-16T04:07:04.829Z,15.20
2022-09-16T04:09:28.735Z,15.20
2022-09-16T04:11:52.245Z,15.00
2022-09-16T04:14:17.362Z,15.10
2022-09-16T04:16:45.032Z,14.90
2022-09-16T04:19:09.114Z,14.80
2022-09-16T04:21:32.587Z,14.70
2022-09-16T04:23:56.640Z,14.80
2022-09-16T04:26:20.112Z,14.80
2022-09-16T04:28:43.816Z,14.80
2022-09-16T04:31:13.139Z,14.90
2022-09-16T04:33:37.561Z,15.00
2022-09-16T04:36:05.698Z,14.90
2022-09-16T04:38:29.355Z,14.90
2022-09-16T04:40:54.330Z,14.90
2022-09-16T04:43:17.971Z,15.10
2022-09-16T04:45:41.395Z,14.90
2022-09-16T04:48:06.268Z,15.00
2022-09-16T04:50:29.837Z,15.10
2022-09-16T04:52:53.300Z,15.10
2022-09-16T04:55:17.457Z,15.10
2022-09-16T04:57:42.113Z,15.10
2022-09-16T05:00:06.950Z,14.90
2022-09-16T05:02:30.929Z,14.80
2022-09-16T05:04:55.937Z,14.90
2022-09-16T05:07:19.397Z,14.80
2022-09-16T05:09:43.199Z,14.80
2022-09-16T05:12:08.451Z,14.80
2022-09-16T05:14:32.124Z,14.60
2022-09-16T05:16:55.595Z,14.70
2022-09-16T05:19:19.056Z,14.70
2022-09-16T05:21:44.106Z,14.80
2022-09-16T05:24:10.401Z,14.80
2022-09-16T05:26:35.402Z,14.70
2022-09-16T05:29:02.381Z,14.70
2022-09-16T05:31:28.349Z,14.60
2022-09-16T05:33:57.253Z,14.60
2022-09-16T05:36:20.774Z,14.60
2022-09-16T05:39:04.754Z,14.70
2022-09-16T05:41:30.164Z,14.70
2022-09-16T05:43:54.612Z,14.80
2022-09-16T05:46:21.089Z,14.70
2022-09-16T05:48:44.718Z,14.60
2022-09-16T05:51:08.852Z,14.60
2022-09-16T05:53:34.368Z,14.70
2022-09-16T05:56:01.482Z,14.80
2022-09-16T05:58:25.230Z,14.80
2022-09-16T06:00:48.674Z,14.80
2022-09-16T06:03:12.470Z,14.70
2022-09-16T06:05:35.877Z,14.70
2022-09-16T06:07:59.874Z,14.90
2022-09-16T06:10:23.363Z,14.90
2022-09-16T06:12:49.478Z,14.80
2022-09-16T06:15:13.242Z,14.80
2022-09-16T06:17:36.850Z,14.60
2022-09-16T06:20:00.346Z,14.80
2022-09-16T06:22:23.855Z,14.80
2022-09-16T06:24:47.519Z,14.80
2022-09-16T06:27:11.209Z,14.90
2022-09-16T06:29:36.139Z,14.90
2022-09-16T06:31:59.616Z,14.90
2022-09-16T06:34:23.187Z,15.00
2022-09-16T06:36:47.906Z,15.00
2022-09-16T06:39:14.217Z,15.00
2022-09-16T06:41:37.726Z,15.10
2022-09-16T06:44:01.740Z,15.00
2022-09-16T06:46:29.522Z,15.10
2022-09-16T06:48:58.495Z,15.20
2022-09-16T06:51:25.686Z,15.20
2022-09-16T06:53:49.091Z,15.20
2022-09-16T06:56:17.607Z,15.20
2022-09-16T06:58:43.456Z,15.30
2022-09-16T07:01:08.353Z,15.20
2022-09-16T07:03:33.277Z,15.20
2022-09-16T07:05:58.777Z,15.20
2022-09-16T07:08:22.325Z,15.40
2022-09-16T07:10:45.907Z,15.40
2022-09-16T07:13:09.458Z,15.50
2022-09-16T07:15:32.886Z,15.50
2022-09-16T07:17:56.555Z,15.40
2022-09-16T07:20:21.451Z,15.40
2022-09-16T07:22:45.139Z,15.50
2022-09-16T07:25:09.353Z,15.50
2022-09-16T07:27:32.831Z,15.50
2022-09-16T07:29:59.579Z,15.50
2022-09-16T07:32:23.740Z,15.30
2022-09-16T07:34:47.218Z,15.40
2022-09-16T07:37:12.809Z,15.30
2022-09-16T07:39:36.267Z,15.40
2022-09-16T07:42:03.844Z,15.60
2022-09-16T07:44:29.426Z,15.50
2022-09-16T07:46:53.181Z,15.60
2022-09-16T07:49:17.570Z,15.80
2022-09-16T07:51:41.548Z,15.80
2022-09-16T07:54:09.511Z,15.80
2022-09-16T07:56:35.977Z,15.70
2022-09-16T07:59:00.140Z,15.70
2022-09-16T08:01:24.213Z,15.80
2022-09-16T08:03:49.113Z,15.70
2022-09-16T08:06:14.996Z,15.60
2022-09-16T08:08:38.785Z,15.50
2022-09-16T08:11:04.985Z,15.70
2022-09-16T08:13:30.718Z,15.70
2022-09-16T08:15:55.406Z,15.70
2022-09-16T08:18:18.938Z,15.80
2022-09-16T08:20:42.526Z,16.00
2022-09-16T08:23:06.045Z,16.00
2022-09-16T08:25:29.753Z,15.80
2022-09-16T08:27:56.353Z,15.90
2022-09-16T08:30:21.345Z,15.90
2022-09-16T08:32:45.011Z,16.10
2022-09-16T08:35:09.505Z,16.10
2022-09-16T08:37:33.042Z,16.00
2022-09-16T08:39:56.682Z,15.90
2022-09-16T08:42:33.143Z,16.00
2022-09-16T08:45:10.063Z,16.10
2022-09-16T08:47:48.304Z,16.10
2022-09-16T08:50:19.086Z,16.20
2022-09-16T08:52:45.448Z,16.30
2022-09-16T08:55:13.836Z,16.30
2022-09-16T08:57:43.152Z,16.40
2022-09-16T09:00:16.164Z,16.40
2022-09-16T09:02:44.627Z,16.50
2022-09-16T09:05:19.746Z,16.60
2022-09-16T09:07:58.543Z,16.60
2022-09-16T09:10:28.427Z,16.70
2022-09-16T09:13:01.323Z,16.80
2022-09-16T09:15:38.715Z,16.70
2022-09-16T09:18:17.867Z,16.80
2022-09-16T09:20:52.535Z,16.60
2022-09-16T09:23:41.700Z,16.70
2022-09-16T09:26:14.825Z,17.00
2022-09-16T09:28:58.273Z,17.00
2022-09-16T09:31:34.781Z,16.90
2022-09-16T09:34:08.160Z,16.80
2022-09-16T09:36:52.214Z,17.00
2022-09-16T09:39:42.550Z,17.00
2022-09-16T09:42:16.407Z,16.70
2022-09-16T09:44:55.263Z,16.80
2022-09-16T09:47:28.276Z,17.00
2022-09-16T09:49:56.051Z,17.30
2022-09-16T09:52:26.877Z,17.30
2022-09-16T09:54:52.373Z,17.30
2022-09-16T09:57:23.717Z,17.40
2022-09-16T09:59:53.636Z,17.10
2022-09-16T10:02:19.824Z,17.20
2022-09-16T10:04:45.095Z,17.40
2022-09-16T10:07:10.203Z,17.40
2022-09-16T10:09:35.634Z,17.30
2022-09-16T10:11:59.600Z,17.30
2022-09-16T10:14:26.996Z,17.20
2022-09-16T10:16:52.521Z,17.00
2022-09-16T10:19:22.209Z,16.90
2022-09-16T10:21:51.666Z,16.80
2022-09-16T10:24:38.215Z,16.80
2022-09-16T10:27:04.426Z,17.20
2022-09-16T10:29:28.307Z,17.20
2022-09-16T10:31:52.585Z,17.50
2022-09-16T10:34:33.979Z,17.50
2022-09-16T10:37:16.760Z,17.30
2022-09-16T10:39:42.216Z,17.50
2022-09-16T10:42:17.720Z,17.90
2022-09-16T10:44:41.155Z,18.20
2022-09-16T10:47:09.346Z,18.40
2022-09-16T10:49:40.495Z,18.30
2022-09-16T10:52:25.548Z,18.50
2022-09-16T10:54:49.952Z,18.50
2022-09-16T10:57:33.253Z,18.00
2022-09-16T11:00:04.666Z,17.60
2022-09-16T11:02:48.226Z,17.70
2022-09-16T11:05:17.050Z,17.70
2022-09-16T11:07:48.045Z,17.50
2022-09-16T11:10:19.207Z,17.80
2022-09-16T11:13:06.534Z,18.00
2022-09-16T11:15:42.651Z,18.10
2022-09-16T11:18:29.545Z,17.90
2022-09-16T11:21:09.127Z,17.40
2022-09-16T11:23:56.392Z,17.20
2022-09-16T11:26:29.013Z,16.80
2022-09-16T11:29:28.957Z,16.70
2022-09-16T11:32:06.145Z,16.80
2022-09-16T11:34:49.614Z,16.90
2022-09-16T11:37:21.879Z,16.70
2022-09-16T11:40:13.249Z,16.60
2022-09-16T11:42:43.410Z,16.40
2022-09-16T11:45:25.332Z,16.20
2022-09-16T11:48:18.129Z,16.20
2022-09-16T11:50:50.699Z,16.20
2022-09-16T11:53:43.177Z,16.30
2022-09-16T11:56:15.482Z,16.30
2022-09-16T11:58:45.291Z,16.60
2022-09-16T12:01:23.799Z,16.60
2022-09-16T12:03:51.106Z,16.60
2022-09-16T12:06:21.088Z,16.70
2022-09-16T12:08:58.528Z,16.30
2022-09-16T12:11:33.082Z,16.20
2022-09-16T12:14:06.842Z,16.30
2022-09-16T12:16:37.409Z,16.50
2022-09-16T12:19:08.354Z,16.50
2022-09-16T12:21:40.081Z,16.30
2022-09-16T12:24:10.550Z,16.20
2022-09-16T12:26:40.006Z,15.90
2022-09-16T12:29:25.786Z,15.90
2022-09-16T12:31:54.866Z,16.20
2022-09-16T12:34:27.057Z,16.10
2022-09-16T12:37:06.473Z,16.20
2022-09-16T12:39:30.300Z,16.30
2022-09-16T12:42:24.330Z,16.20
2022-09-16T12:45:09.604Z,16.30
2022-09-16T12:48:08.016Z,16.50
2022-09-16T12:50:56.191Z,16.70
2022-09-16T12:53:55.987Z,16.70
2022-09-16T12:56:47.794Z,16.80
2022-09-16T13:00:00.172Z,16.60
2022-09-16T13:02:29.734Z,16.60
2022-09-16T13:04:58.868Z,16.60
2022-09-16T13:07:26.791Z,16.60
2022-09-16T13:09:50.527Z,16.80
2022-09-16T13:12:39.229Z,16.80
2022-09-16T13:15:08.624Z,16.60
2022-09-16T13:17:34.810Z,16.70
2022-09-16T13:20:08.636Z,16.70
2022-09-16T13:22:39.769Z,16.70
2022-09-16T13:25:12.569Z,16.80
2022-09-16T13:27:38.802Z,16.60
2022-09-16T13:30:37.813Z,16.60
2022-09-16T13:33:19.460Z,16.60
2022-09-16T13:35:45.040Z,16.40
2022-09-16T13:38:38.748Z,16.60
2022-09-16T13:41:03.396Z,16.50
2022-09-16T13:43:36.931Z,16.60
2022-09-16T13:46:10.870Z,16.60
2022-09-16T13:48:43.788Z,16.30
2022-09-16T13:51:18.743Z,16.20
2022-09-16T13:53:48.322Z,16.10
2022-09-16T13:56:34.255Z,15.90
2022-09-16T13:59:16.984Z,15.90
2022-09-16T14:02:00.291Z,16.10
2022-09-16T14:04:42.587Z,16.40
2022-09-16T14:07:24.076Z,16.20
2022-09-16T14:10:00.102Z,16.20
2022-09-16T14:12:36.103Z,16.10
2022-09-16T14:15:00.725Z,16.20
2022-09-16T14:17:28.981Z,16.30
2022-09-16T14:19:59.491Z,16.40
2022-09-16T14:22:26.788Z,16.50
2022-09-16T14:24:56.710Z,16.50
2022-09-16T14:27:34.135Z,16.60
2022-09-16T14:29:59.587Z,16.70
2022-09-16T14:32:28.614Z,16.60
2022-09-16T14:34:52.703Z,16.40
2022-09-16T14:37:18.444Z,16.50
2022-09-16T14:39:44.778Z,16.50
2022-09-16T14:42:09.046Z,16.40
2022-09-16T14:44:36.911Z,16.60
2022-09-16T14:47:09.423Z,16.60
2022-09-16T14:49:39.573Z,16.40
2022-09-16T14:52:03.942Z,16.60
2022-09-16T14:54:28.912Z,16.40
2022-09-16T14:57:00.533Z,16.40
2022-09-16T14:59:27.460Z,16.50
2022-09-16T15:01:51.201Z,16.50
2022-09-16T15:04:19.564Z,16.20
2022-09-16T15:06:50.017Z,16.20
2022-09-16T15:09:19.364Z,16.30
2022-09-16T15:11:49.765Z,16.20
2022-09-16T15:14:13.836Z,16.20
2022-09-16T15:16:45.438Z,16.20
2022-09-16T15:19:19.366Z,16.50
2022-09-16T15:21:46.887Z,16.60
2022-09-16T15:24:21.594Z,16.50
2022-09-16T15:26:46.594Z,16.30
2022-09-16T15:29:32.051Z,16.40
2022-09-16T15:31:55.942Z,16.40
2022-09-16T15:34:24.463Z,16.40
2022-09-16T15:37:00.024Z,16.30
2022-09-16T15:39:28.586Z,16.20
2022-09-16T15:42:10.609Z,16.00
2022-09-16T15:44:37.307Z,16.10
2022-09-16T15:47:01.465Z,16.20
2022-09-16T15:49:29.217Z,16.30
2022-09-16T15:51:53.334Z,16.30
2022-09-16T15:54:24.775Z,16.20
2022-09-16T15:56:58.976Z,16.30
2022-09-16T15:59:30.218Z,16.30
2022-09-16T16:01:58.419Z,16.40
2022-09-16T16:04:29.207Z,16.30
2022-09-16T16:06:58.307Z,16.30
2022-09-16T16:09:42.430Z,16.30
2022-09-16T16:12:10.148Z,16.30
2022-09-16T16:14:35.370Z,16.00
2022-09-16T16:17:12.367Z,16.00
2022-09-16T16:19:38.782Z,16.20
2022-09-16T16:22:02.416Z,16.10
2022-09-16T16:24:26.004Z,16.10
2022-09-16T16:26:54.828Z,16.00
2022-09-16T16:29:20.226Z,16.20
2022-09-16T16:32:03.980Z,16.30
2022-09-16T16:34:27.648Z,16.30
2022-09-16T16:36:51.161Z,16.30
2022-09-16T16:39:15.095Z,16.20
2022-09-16T16:41:38.557Z,16.00
2022-09-16T16:44:03.414Z,16.10
2022-09-16T16:46:27.856Z,16.20
2022-09-16T16:48:51.488Z,16.10
2022-09-16T16:51:15.522Z,15.90
2022-09-16T16:53:40.632Z,15.90
2022-09-16T16:56:05.736Z,15.80
2022-09-16T16:58:31.572Z,16.00
2022-09-16T17:00:56.431Z,15.90
2022-09-16T17:03:20.232Z,16.00
2022-09-16T17:05:43.945Z,15.80
2022-09-16T17:08:07.551Z,15.90
2022-09-16T17:10:31.053Z,16.00
2022-09-16T17:12:54.639Z,15.90
2022-09-16T17:15:18.597Z,15.80
2022-09-16T17:17:44.329Z,15.80
2022-09-16T17:20:09.115Z,15.80
2022-09-16T17:22:32.590Z,15.80
2022-09-16T17:24:56.683Z,15.50
2022-09-16T17:27:21.919Z,15.70
2022-09-16T17:29:45.585Z,15.60
2022-09-16T17:32:09.170Z,15.60
2022-09-16T17:34:34.097Z,15.40
2022-09-16T17:36:57.586Z,15.40
2022-09-16T17:39:23.309Z,15.50
2022-09-16T17:41:48.788Z,15.40
2022-09-16T17:44:14.508Z,15.40
2022-09-16T17:46:38.647Z,15.50
2022-09-16T17:49:04.247Z,15.40
2022-09-16T17:51:29.115Z,15.50
2022-09-16T17:53:52.656Z,15.50
2022-09-16T17:56:17.392Z,15.60
2022-09-16T17:58:44.308Z,15.40
2022-09-16T18:01:10.590Z,15.30
2022-09-16T18:03:34.468Z,15.30
2022-09-16T18:06:06.220Z,15.00
2022-09-16T18:08:31.133Z,15.30
2022-09-16T18:10:54.718Z,15.20
2022-09-16T18:13:18.241Z,15.00
2022-09-16T18:15:41.890Z,15.10
2022-09-16T18:18:05.581Z,15.10
2022-09-16T18:20:29.158Z,15.20
2022-09-16T18:22:52.917Z,15.10
2022-09-16T18:25:17.991Z,15.00
2022-09-16T18:27:44.119Z,15.20
2022-09-16T18:30:09.724Z,15.20
2022-09-16T18:32:33.397Z,15.10
2022-09-16T18:34:57.442Z,15.00
2022-09-16T18:37:20.957Z,14.80
2022-09-16T18:39:44.773Z,15.00
2022-09-16T18:42:09.649Z,15.00
2022-09-16T18:44:33.422Z,15.10
2022-09-16T18:46:57.348Z,14.80
2022-09-16T18:49:24.055Z,15.00
2022-09-16T18:51:51.675Z,15.00
2022-09-16T18:54:18.427Z,15.10
2022-09-16T18:56:42.637Z,15.10
2022-09-16T18:59:26.897Z,15.10
2022-09-16T19:01:52.008Z,15.10
2022-09-16T19:04:18.979Z,15.00
2022-09-16T19:06:45.031Z,14.90
2022-09-16T19:09:12.090Z,14.70
2022-09-16T19:11:36.717Z,14.50
2022-09-16T19:14:00.541Z,14.40
2022-09-16T19:16:27.230Z,14.60
2022-09-16T19:18:53.318Z,14.60
2022-09-16T19:21:18.929Z,14.80
2022-09-16T19:23:42.971Z,14.80
2022-09-16T19:26:07.311Z,14.60
2022-09-16T19:28:32.546Z,14.40
2022-09-16T19:31:03.840Z,14.40
2022-09-16T19:33:28.732Z,14.40
2022-09-16T19:35:52.158Z,14.60
2022-09-16T19:38:15.777Z,14.40
2022-09-16T19:40:39.370Z,14.40
2022-09-16T19:43:03.240Z,14.20
2022-09-16T19:45:27.934Z,14.20
2022-09-16T19:47:51.547Z,14.30
2022-09-16T19:50:16.556Z,14.30
2022-09-16T19:52:40.820Z,14.30
2022-09-16T19:55:05.201Z,14.30
2022-09-16T19:57:28.714Z,14.40
2022-09-16T19:59:52.187Z,14.20
2022-09-16T20:02:16.088Z,14.20
2022-09-16T20:04:39.963Z,14.00
2022-09-16T20:07:05.778Z,14.00
2022-09-16T20:09:29.392Z,14.20
2022-09-16T20:11:52.846Z,13.80
2022-09-16T20:14:19.857Z,14.00
2022-09-16T20:16:43.714Z,13.90
2022-09-16T20:19:10.534Z,13.70
2022-09-16T20:21:35.132Z,13.80
2022-09-16T20:24:00.369Z,13.90
2022-09-16T20:26:24.423Z,13.90
2022-09-16T20:28:51.019Z,13.80
2022-09-16T20:31:15.708Z,13.90
2022-09-16T20:33:40.004Z,13.70
2022-09-16T20:36:05.005Z,13.70
2022-09-16T20:38:28.465Z,13.70
2022-09-16T20:40:53.359Z,13.90
2022-09-16T20:43:17.287Z,14.00
2022-09-16T20:45:41.382Z,13.90
2022-09-16T20:48:05.255Z,14.00
2022-09-16T20:50:28.734Z,13.80
2022-09-16T20:52:52.224Z,13.80
2022-09-16T20:55:16.016Z,13.70
2022-09-16T20:57:41.157Z,13.70
2022-09-16T21:00:06.822Z,13.80
2022-09-16T21:02:30.319Z,13.80
2022-09-16T21:04:53.867Z,13.80
2022-09-16T21:07:17.373Z,13.70
2022-09-16T21:09:40.863Z,13.70
2022-09-16T21:12:04.847Z,13.80
2022-09-16T21:14:29.826Z,13.80
2022-09-16T21:16:54.349Z,13.70
2022-09-16T21:19:17.953Z,13.70
2022-09-16T21:21:46.257Z,13.70
2022-09-16T21:24:10.208Z,13.60
2022-09-16T21:26:35.506Z,13.40
2022-09-16T21:29:01.331Z,13.50
2022-09-16T21:31:28.395Z,13.70
2022-09-16T21:33:52.854Z,13.70
2022-09-16T21:36:17.061Z,13.70
2022-09-16T21:38:42.066Z,13.60
2022-09-16T21:41:08.038Z,13.50
2022-09-16T21:43:33.955Z,13.60
2022-09-16T21:45:57.752Z,13.60
2022-09-16T21:48:23.078Z,13.60
2022-09-16T21:50:47.741Z,13.40
2022-09-16T21:53:11.906Z,13.40
2022-09-16T21:55:35.625Z,13.40
2022-09-16T21:57:59.256Z,13.50
2022-09-16T22:00:22.716Z,13.50
2022-09-16T22:02:46.348Z,13.60
2022-09-16T22:05:11.318Z,13.60
2022-09-16T22:07:34.809Z,13.60
2022-09-16T22:09:58.327Z,13.80
2022-09-16T22:12:21.766Z,13.80
2022-09-16T22:14:45.521Z,13.80
2022-09-16T22:17:09.063Z,13.80
2022-09-16T22:19:32.496Z,13.30
2022-09-16T22:21:57.417Z,13.40
2022-09-16T22:24:24.106Z,13.50
2022-09-16T22:26:48.583Z,13.70
2022-09-16T22:29:13.513Z,13.50
2022-09-16T22:31:39.885Z,13.60
2022-09-16T22:34:03.726Z,13.70
2022-09-16T22:36:30.880Z,13.70
2022-09-16T22:38:57.300Z,13.50
2022-09-16T22:41:21.769Z,13.60
2022-09-16T22:43:48.617Z,13.40
2022-09-16T22:46:15.075Z,13.50
2022-09-16T22:48:39.336Z,13.50
2022-09-16T22:51:04.864Z,13.70
2022-09-16T22:53:29.706Z,13.60
2022-09-16T22:55:58.430Z,13.70
2022-09-16T22:58:21.865Z,13.80
2022-09-16T23:00:45.532Z,13.80
2022-09-16T23:03:09.218Z,14.00
2022-09-16T23:05:32.722Z,14.00
2022-09-16T23:07:56.301Z,13.90
2022-09-16T23:10:19.760Z,13.70
2022-09-16T23:12:44.605Z,13.80
2022-09-16T23:15:11.537Z,13.80
2022-09-16T23:17:34.998Z,13.80
2022-09-16T23:19:58.518Z,13.70
2022-09-16T23:22:22.006Z,13.40
2022-09-16T23:24:45.526Z,13.50
2022-09-16T23:27:09.026Z,13.40
2022-09-16T23:29:33.890Z,13.40
2022-09-16T23:31:57.785Z,13.40
2022-09-16T23:34:23.015Z,13.50
2022-09-16T23:36:47.119Z,13.70
2022-09-16T23:39:13.315Z,13.70
2022-09-16T23:41:38.472Z,13.60
2022-09-16T23:44:02.644Z,13.40
2022-09-16T23:46:31.212Z,13.50
2022-09-16T23:48:54.935Z,13.60
2022-09-16T23:51:21.765Z,13.60
2022-09-16T23:53:48.617Z,13.50
2022-09-16T23:56:14.389Z,13.60
2022-09-16T23:58:37.967Z,13.60
